»·PEaware :: UAL1151 KDEN-KABQ

UAL1151 :: KDEN-KABQ

FLIGHT INFORMATION

Flight Status: Arrived
Operator:
United Airlines
More flights by this operator :: More flights under this callsign
Pilot: Jac C. (16067)
Aircraft: AIRBUS A319
(A319)
More flights by this aircraft type
Origin: KDEN Denver Intl
United States
Destination: KABQ Albuquerque Intl Sunport
United States
More flights between these airports :: More routes between these airports
Route: SPAZZ4 ZAPAA DATME SNDIA3
File this flight plan on PilotEdge
Remarks: PBN / A1B1C1D1O1S1 DOF / 181127 REG / N319SB EET / KZAB0034 OPR / UAL PER / C RMK / TCAS SIMBRIEF
Altitude:
(Current/Filed)
38,000ft
Speed:
(Current/Filed)
440kts
Departed: 27-Nov-18 03:59 PM
Arrived: 27-Nov-18 05:00 PM
Distance/Time
Traveled:
303nm/1:01
Distance/Time
To Go:
Arrived

Flight Plot

Page will automatically refresh every two minutes.

Flight plan parsing failed; only flown route is shown


Map Options




Map Legend


Flown Route
Filed Route
Departure Airport
Arrival Airport
Navaid (VOR, NDB)
Fix

Horizontal Profiles

Position Reports

Time Latitude Longitude Heading Altitude Ground
Speed
27-Nov-18 15:20 39.858135 -104.677235 0 5443ft 0kts
27-Nov-18 15:21 39.858135 -104.677235 0 5443ft 0kts
27-Nov-18 15:22 39.858135 -104.677235 0 5443ft 0kts
27-Nov-18 15:23 39.858135 -104.677235 0 5443ft 0kts
27-Nov-18 15:24 39.858135 -104.677235 0 5443ft 0kts
27-Nov-18 15:25 39.858135 -104.677235 0 5443ft 0kts
27-Nov-18 15:26 39.858135 -104.677235 0 5443ft 0kts
27-Nov-18 15:27 39.858135 -104.677235 0 5443ft 0kts
27-Nov-18 15:28 39.858135 -104.677235 0 5443ft 0kts
27-Nov-18 15:29 39.858135 -104.677235 0 5443ft 0kts
27-Nov-18 15:30 39.858135 -104.677235 0 5443ft 0kts
27-Nov-18 15:31 39.858135 -104.677235 0 5443ft 0kts
27-Nov-18 15:32 39.858135 -104.677235 0 5443ft 0kts
27-Nov-18 15:33 39.858135 -104.677235 0 5443ft 0kts
27-Nov-18 15:34 39.858134 -104.677235 0 5443ft 0kts
27-Nov-18 15:35 39.858134 -104.677235 0 5443ft 0kts
27-Nov-18 15:36 39.858134 -104.677235 0 5443ft 0kts
27-Nov-18 15:37 39.857817 -104.677238 0 5443ft 2kts
27-Nov-18 15:38 39.857390 -104.677122 309 5443ft 2kts
27-Nov-18 15:39 39.857316 -104.676804 271 5443ft 0kts
27-Nov-18 15:40 39.857316 -104.676804 271 5443ft 0kts
27-Nov-18 15:41 39.857316 -104.676804 271 5443ft 0kts
27-Nov-18 15:42 39.857316 -104.676804 271 5443ft 0kts
27-Nov-18 15:43 39.857316 -104.676804 271 5443ft 0kts
27-Nov-18 15:44 39.857316 -104.676804 271 5443ft 0kts
27-Nov-18 15:45 39.857316 -104.676804 271 5443ft 0kts
27-Nov-18 15:46 39.857316 -104.676804 271 5443ft 0kts
27-Nov-18 15:47 39.857316 -104.676804 271 5443ft 0kts
27-Nov-18 15:48 39.857316 -104.676804 271 5443ft 0kts
27-Nov-18 15:49 39.857316 -104.676804 271 5443ft 0kts
27-Nov-18 15:50 39.857316 -104.676804 271 5443ft 0kts
27-Nov-18 15:51 39.857331 -104.677385 272 5443ft 8kts
27-Nov-18 15:52 39.856676 -104.681065 267 5443ft 7kts
27-Nov-18 15:53 39.856875 -104.683097 271 5443ft 12kts
27-Nov-18 15:54 39.860320 -104.683925 1 5443ft 18kts
27-Nov-18 15:55 39.864272 -104.684828 264 5443ft 11kts
27-Nov-18 15:56 39.864256 -104.685518 270 5443ft 0kts
27-Nov-18 15:57 39.864256 -104.685518 270 5443ft 0kts
27-Nov-18 15:58 39.864256 -104.685518 270 5443ft 0kts
27-Nov-18 15:59 39.864256 -104.685518 270 5443ft 0kts
27-Nov-18 16:00 39.864257 -104.685547 269 5443ft 1kts
27-Nov-18 16:01 39.865559 -104.687159 359 5443ft 27kts
27-Nov-18 16:02 39.900996 -104.685392 354 6516ft 156kts
27-Nov-18 16:03 39.906603 -104.731135 227 8167ft 200kts
27-Nov-18 16:04 39.862226 -104.794376 232 9836ft 276kts
27-Nov-18 16:05 39.809979 -104.869684 232 10064ft 291kts
27-Nov-18 16:06 39.744492 -104.924640 192 12898ft 330kts
27-Nov-18 16:07 39.651479 -104.912793 172 15963ft 351kts
27-Nov-18 16:08 39.560668 -104.861214 155 18575ft 371kts
27-Nov-18 16:09 39.467773 -104.802044 162 20876ft 381kts
27-Nov-18 16:10 39.366928 -104.758123 176 22907ft 388kts
27-Nov-18 16:11 39.260084 -104.750772 182 24694ft 399kts
27-Nov-18 16:12 39.148976 -104.743945 182 26451ft 409kts
27-Nov-18 16:13 39.035833 -104.746226 200 28008ft 407kts
27-Nov-18 16:14 38.933844 -104.806337 210 29285ft 414kts
27-Nov-18 16:15 38.831180 -104.869874 209 30594ft 423kts
27-Nov-18 16:16 38.725625 -104.936170 212 31813ft 430kts
27-Nov-18 16:17 38.620546 -105.009689 212 32938ft 437kts
27-Nov-18 16:18 38.514539 -105.083061 212 34308ft 433kts
27-Nov-18 16:19 38.410534 -105.154686 212 35586ft 428kts
27-Nov-18 16:20 38.306790 -105.225887 212 36600ft 426kts
27-Nov-18 16:21 38.203283 -105.296672 212 37409ft 426kts
27-Nov-18 16:22 38.099226 -105.367589 212 38008ft 427kts
27-Nov-18 16:23 37.995120 -105.438323 212 38093ft 426kts
27-Nov-18 16:24 37.891880 -105.508214 212 38106ft 426kts
27-Nov-18 16:25 37.788393 -105.577795 212 38111ft 426kts
27-Nov-18 16:26 37.681837 -105.641568 205 38109ft 430kts
27-Nov-18 16:27 37.573687 -105.692941 205 38111ft 430kts
27-Nov-18 16:28 37.462352 -105.745519 204 38111ft 430kts
27-Nov-18 16:29 37.352122 -105.797239 204 38111ft 430kts
27-Nov-18 16:30 37.240608 -105.849380 204 38111ft 430kts
27-Nov-18 16:31 37.129465 -105.901179 204 38111ft 430kts
27-Nov-18 16:32 37.021274 -105.951530 203 38111ft 430kts
27-Nov-18 16:33 36.909415 -106.003322 203 38113ft 431kts
27-Nov-18 16:34 36.810693 -106.048688 203 38127ft 431kts
27-Nov-18 16:35 36.701421 -106.098967 203 38145ft 431kts
27-Nov-18 16:36 36.590596 -106.152842 203 38145ft 431kts
27-Nov-18 16:37 36.477974 -106.201797 202 37812ft 426kts
27-Nov-18 16:38 36.367581 -106.249811 202 35568ft 421kts
27-Nov-18 16:39 36.257287 -106.297788 202 32898ft 426kts
27-Nov-18 16:40 36.145333 -106.346152 200 30006ft 432kts
27-Nov-18 16:41 36.034613 -106.386351 203 28404ft 405kts
27-Nov-18 16:42 35.930517 -106.432527 202 26461ft 394kts
27-Nov-18 16:43 35.829808 -106.475762 202 24547ft 384kts
27-Nov-18 16:44 35.730779 -106.518110 202 22646ft 373kts
27-Nov-18 16:45 35.634497 -106.559254 202 20777ft 364kts
27-Nov-18 16:46 35.542623 -106.603640 208 18946ft 353kts
27-Nov-18 16:47 35.454775 -106.651479 206 17132ft 345kts
27-Nov-18 16:48 35.375618 -106.694327 207 16178ft 317kts
27-Nov-18 16:49 35.296270 -106.736994 207 14658ft 310kts
27-Nov-18 16:50 35.221919 -106.782035 210 13173ft 302kts
27-Nov-18 16:51 35.148778 -106.821380 181 12211ft 290kts
27-Nov-18 16:52 35.085166 -106.772620 148 11501ft 271kts
27-Nov-18 16:53 35.019500 -106.719390 169 9329ft 295kts
27-Nov-18 16:54 34.958292 -106.748215 218 8998ft 217kts
27-Nov-18 16:55 34.938490 -106.809929 268 9000ft 208kts
27-Nov-18 16:56 34.937077 -106.878216 268 9006ft 208kts
27-Nov-18 16:57 34.977530 -106.915650 348 9001ft 202kts
27-Nov-18 16:58 35.022104 -106.880875 58 9013ft 220kts
27-Nov-18 16:59 35.045099 -106.812253 85 9013ft 223kts
27-Nov-18 17:00 35.045283 -106.732460 90 7481ft 233kts
27-Nov-18 17:01 35.044719 -106.663071 93 6200ft 195kts
27-Nov-18 17:02 35.044241 -106.606418 90 5322ft 134kts
27-Nov-18 17:03 35.045524 -106.582857 324 5321ft 18kts
27-Nov-18 17:04 35.045770 -106.588042 268 5321ft 18kts
27-Nov-18 17:05 35.045833 -106.594380 269 5321ft 20kts
27-Nov-18 17:06 35.045739 -106.601320 269 5321ft 21kts
27-Nov-18 17:07 35.045784 -106.608534 270 5321ft 21kts
27-Nov-18 17:08 35.045553 -106.615405 270 5321ft 21kts
27-Nov-18 17:09 35.047246 -106.619572 0 5321ft 17kts
27-Nov-18 17:10 35.048014 -106.617648 180 5321ft 3kts
27-Nov-18 17:11 35.047825 -106.617662 184 5321ft 0kts
27-Nov-18 17:12 35.047825 -106.617662 184 5321ft 0kts
27-Nov-18 17:13 35.047825 -106.617662 184 5321ft 0kts
27-Nov-18 17:14 35.047825 -106.617662 184 5321ft 0kts
27-Nov-18 17:15 35.047825 -106.617662 184 5321ft 0kts
27-Nov-18 17:16 35.047824 -106.617660 184 5321ft 0kts
27-Nov-18 17:17 35.047824 -106.617660 184 5321ft 0kts

Navigation Log

Ident Type
Flight plan parsing failed, navigation log unavailable